createdAt,value
2022-08-17T00:01:55.908Z,65.73
2022-08-17T00:04:50.329Z,65.61
2022-08-17T00:07:30.539Z,65.45
2022-08-17T00:10:20.583Z,65.48
2022-08-17T00:13:14.279Z,65.43
2022-08-17T00:16:05.924Z,65.32
2022-08-17T00:19:06.791Z,65.26
2022-08-17T00:22:33.121Z,65.21
2022-08-17T00:24:55.887Z,65.32
2022-08-17T00:27:44.446Z,65.41
2022-08-17T00:30:52.985Z,65.55
2022-08-17T00:33:44.792Z,65.52
2022-08-17T00:36:24.119Z,65.50
2022-08-17T00:39:12.990Z,65.48
2022-08-17T00:41:45.432Z,65.46
2022-08-17T00:44:15.167Z,65.56
2022-08-17T00:46:44.396Z,65.58
2022-08-17T00:49:18.831Z,65.87
2022-08-17T00:52:16.088Z,65.95
2022-08-17T00:55:07.263Z,66.08
2022-08-17T00:58:00.116Z,65.85
2022-08-17T01:00:49.694Z,65.91
2022-08-17T01:03:40.729Z,65.75
2022-08-17T01:06:22.878Z,65.79
2022-08-17T01:09:35.939Z,65.96
2022-08-17T01:12:28.129Z,66.37
2022-08-17T01:15:17.044Z,66.40
2022-08-17T01:18:08.213Z,66.04
2022-08-17T01:21:10.771Z,65.88
2022-08-17T01:24:00.501Z,65.92
2022-08-17T01:26:32.332Z,65.84
2022-08-17T01:29:12.699Z,66.02
2022-08-17T01:32:05.618Z,66.39
2022-08-17T01:34:50.540Z,66.43
2022-08-17T01:37:33.991Z,66.17
2022-08-17T01:40:18.361Z,66.23
2022-08-17T01:43:10.639Z,66.10
2022-08-17T01:46:03.207Z,66.18
2022-08-17T01:48:34.030Z,66.27
2022-08-17T01:51:03.666Z,66.37
2022-08-17T01:53:56.897Z,66.48
2022-08-17T01:56:40.119Z,66.61
2022-08-17T01:59:28.880Z,66.56
2022-08-17T02:02:08.320Z,66.57
2022-08-17T02:04:56.977Z,66.65
2022-08-17T02:07:26.969Z,66.54
2022-08-17T02:10:18.966Z,66.60
2022-08-17T02:12:52.382Z,66.57
2022-08-17T02:15:21.787Z,66.66
2022-08-17T02:17:54.770Z,66.66
2022-08-17T02:20:43.713Z,66.70
2022-08-17T02:23:13.937Z,66.70
2022-08-17T02:25:53.963Z,66.71
2022-08-17T02:28:42.783Z,66.72
2022-08-17T02:31:35.147Z,66.89
2022-08-17T02:34:23.966Z,66.90
2022-08-17T02:37:03.039Z,67.08
2022-08-17T02:39:53.111Z,66.94
2022-08-17T02:42:36.289Z,66.92
2022-08-17T02:45:16.608Z,67.20
2022-08-17T02:47:55.807Z,67.40
2022-08-17T02:50:44.394Z,67.43
2022-08-17T02:53:25.564Z,67.29
2022-08-17T02:56:14.644Z,67.13
2022-08-17T02:59:03.610Z,67.03
2022-08-17T03:01:42.644Z,67.17
2022-08-17T03:04:31.495Z,67.23
2022-08-17T03:07:04.956Z,67.33
2022-08-17T03:09:33.939Z,67.45
2022-08-17T03:12:08.000Z,67.65
2022-08-17T03:14:57.172Z,67.59
2022-08-17T03:17:47.114Z,67.48
2022-08-17T03:20:36.722Z,67.35
2022-08-17T03:23:27.888Z,67.55
2022-08-17T03:26:15.611Z,67.76
2022-08-17T03:29:05.044Z,67.63
2022-08-17T03:31:55.187Z,67.64
2022-08-17T03:34:44.203Z,67.63
2022-08-17T03:37:12.837Z,67.65
2022-08-17T03:39:54.162Z,67.61
2022-08-17T03:42:44.083Z,67.81
2022-08-17T03:45:40.705Z,67.68
2022-08-17T03:48:39.546Z,67.87
2022-08-17T03:51:46.809Z,67.84
2022-08-17T03:54:45.109Z,67.95
2022-08-17T03:57:14.203Z,68.21
2022-08-17T04:00:04.724Z,68.01
2022-08-17T04:02:54.075Z,67.99
2022-08-17T04:05:44.356Z,67.97
2022-08-17T04:08:33.689Z,68.20
2022-08-17T04:11:03.118Z,68.13
2022-08-17T04:13:42.837Z,68.18
2022-08-17T04:16:11.425Z,68.11
2022-08-17T04:19:00.679Z,68.35
2022-08-17T04:21:51.922Z,68.47
2022-08-17T04:24:30.419Z,68.43
2022-08-17T04:27:18.303Z,68.60
2022-08-17T04:30:10.118Z,68.63
2022-08-17T04:33:06.482Z,68.67
2022-08-17T04:35:58.978Z,68.56
2022-08-17T04:38:40.184Z,68.67
2022-08-17T04:41:47.039Z,68.73
2022-08-17T04:44:15.848Z,68.82
2022-08-17T04:47:23.652Z,68.80
2022-08-17T04:50:12.559Z,68.75
2022-08-17T04:53:01.818Z,68.71
2022-08-17T04:55:52.763Z,68.75
2022-08-17T04:58:41.424Z,68.67
2022-08-17T05:01:34.348Z,68.60
2022-08-17T05:04:34.913Z,68.82
2022-08-17T05:07:27.244Z,69.05
2022-08-17T05:10:11.227Z,69.46
2022-08-17T05:12:59.762Z,69.52
2022-08-17T05:15:45.178Z,69.32
2022-08-17T05:18:30.126Z,68.92
2022-08-17T05:21:19.984Z,69.04
2022-08-17T05:24:42.467Z,68.98
2022-08-17T05:27:19.122Z,68.29
2022-08-17T10:31:39.481Z,57.93
2022-08-17T10:34:54.317Z,58.14
2022-08-17T10:38:14.883Z,58.04
2022-08-17T10:41:19.143Z,58.01
2022-08-17T10:44:37.877Z,57.93
2022-08-17T10:48:04.053Z,57.83
2022-08-17T10:51:07.124Z,57.06
2022-08-17T10:54:01.099Z,56.28
2022-08-17T10:56:52.519Z,55.64
2022-08-17T10:59:54.599Z,55.57
2022-08-17T11:02:52.371Z,55.00
2022-08-17T11:05:51.771Z,55.13
2022-08-17T11:09:19.771Z,55.17
2022-08-17T11:12:19.840Z,55.88
2022-08-17T11:15:21.846Z,55.99
2022-08-17T11:18:38.441Z,56.24
2022-08-17T11:22:01.715Z,55.96
2022-08-17T11:24:46.895Z,55.62
2022-08-17T11:27:36.985Z,55.56
2022-08-17T11:30:50.937Z,55.59
2022-08-17T11:34:07.652Z,55.18
2022-08-17T11:37:29.897Z,54.62
2022-08-17T11:40:37.988Z,54.24
2022-08-17T11:43:49.788Z,54.49
2022-08-17T11:47:16.015Z,54.73
2022-08-17T11:50:54.823Z,54.65
2022-08-17T11:57:59.728Z,54.08
2022-08-17T12:00:56.718Z,53.99
2022-08-17T12:03:58.798Z,53.88
2022-08-17T12:06:52.263Z,53.30
2022-08-17T12:09:44.937Z,53.05
2022-08-17T12:12:35.370Z,52.70
2022-08-17T12:15:29.904Z,52.74
2022-08-17T12:18:24.324Z,52.51
2022-08-17T12:21:41.143Z,52.54
2022-08-17T12:24:41.056Z,52.35
2022-08-17T12:28:02.064Z,52.34
2022-08-17T12:30:49.168Z,52.27
2022-08-17T12:33:45.549Z,52.37
2022-08-17T12:36:35.181Z,52.56
2022-08-17T12:39:26.478Z,52.62
2022-08-17T12:42:24.819Z,52.45
2022-08-17T12:45:25.504Z,52.55
2022-08-17T12:48:07.155Z,52.69
2022-08-17T12:51:01.928Z,52.72
2022-08-17T12:53:54.876Z,52.37
2022-08-17T12:56:46.330Z,52.29
2022-08-17T12:59:41.584Z,52.29
2022-08-17T13:02:41.648Z,52.69
2022-08-17T13:05:35.488Z,52.70
2022-08-17T13:08:27.652Z,52.62
2022-08-17T13:11:21.189Z,52.34
2022-08-17T13:14:10.876Z,52.51
2022-08-17T13:17:04.851Z,52.27
2022-08-17T13:19:57.091Z,51.79
2022-08-17T13:22:54.895Z,51.41
2022-08-17T13:25:54.415Z,51.38
2022-08-17T14:11:06.304Z,51.68
2022-08-17T14:14:36.227Z,51.78
2022-08-17T14:25:54.653Z,51.65
2022-08-17T14:28:50.714Z,51.69
2022-08-17T14:37:28.780Z,52.06
2022-08-17T14:44:52.441Z,52.19
2022-08-17T14:47:41.997Z,52.04
2022-08-17T14:55:27.816Z,51.91
2022-08-17T14:58:17.480Z,51.82
2022-08-17T15:01:09.548Z,51.80
2022-08-17T15:04:00.945Z,51.76
2022-08-17T15:06:50.169Z,51.78
2022-08-17T15:09:39.505Z,51.82
2022-08-17T15:12:32.341Z,51.80
2022-08-17T15:15:23.483Z,51.74
2022-08-17T15:18:12.377Z,51.89
2022-08-17T15:21:04.568Z,51.92
2022-08-17T15:23:53.220Z,51.88
2022-08-17T15:26:42.733Z,51.91
2022-08-17T15:29:31.424Z,52.05
2022-08-17T15:32:28.497Z,51.86
2022-08-17T15:35:17.473Z,51.89
2022-08-17T15:38:11.712Z,52.04
2022-08-17T15:41:01.443Z,52.08
2022-08-17T15:43:50.996Z,52.15
2022-08-17T15:46:40.017Z,52.25
2022-08-17T15:49:30.776Z,52.36
2022-08-17T15:52:22.873Z,52.33
2022-08-17T15:55:13.973Z,52.37
2022-08-17T15:58:03.095Z,52.54
2022-08-17T16:01:15.022Z,52.46
2022-08-17T16:04:07.273Z,52.62
2022-08-17T16:07:10.770Z,52.58
2022-08-17T16:09:59.631Z,52.65
2022-08-17T16:12:44.429Z,52.74
2022-08-17T16:15:33.162Z,52.90
2022-08-17T16:18:22.047Z,53.08
2022-08-17T16:21:26.372Z,53.19
2022-08-17T16:24:15.319Z,53.48
2022-08-17T16:27:12.438Z,53.78
2022-08-17T16:30:02.213Z,53.85
2022-08-17T16:32:52.388Z,53.84
2022-08-17T16:35:42.522Z,53.88
2022-08-17T16:38:31.310Z,54.03
2022-08-17T16:41:35.318Z,54.04
2022-08-17T16:44:25.173Z,54.17
2022-08-17T16:47:16.862Z,54.33
2022-08-17T16:50:08.319Z,54.40
2022-08-17T16:53:06.019Z,54.65
2022-08-17T16:55:56.013Z,54.78
2022-08-17T16:58:44.765Z,54.64
2022-08-17T17:01:34.198Z,54.76
2022-08-17T17:04:23.727Z,54.82
2022-08-17T17:07:35.555Z,54.97
2022-08-17T17:10:30.372Z,55.01
2022-08-17T17:13:31.668Z,55.12
2022-08-17T17:16:28.283Z,55.03
2022-08-17T17:19:34.628Z,55.10
2022-08-17T17:22:30.600Z,55.06
2022-08-17T17:25:26.492Z,55.27
2022-08-17T18:35:29.707Z,56.51
2022-08-17T18:43:28.054Z,56.75
2022-08-17T18:51:40.641Z,56.95
2022-08-17T18:55:08.415Z,57.12
2022-08-17T19:03:39.327Z,57.35
2022-08-17T19:10:46.998Z,57.69
2022-08-17T19:22:13.031Z,58.03
2022-08-17T19:25:04.022Z,58.10
2022-08-17T19:33:29.409Z,58.28
2022-08-17T19:35:59.918Z,58.40
2022-08-17T19:40:05.888Z,58.47
2022-08-17T19:47:54.854Z,58.75
2022-08-17T19:51:15.095Z,58.96
2022-08-17T19:58:51.927Z,59.13
2022-08-17T20:10:39.079Z,59.44
2022-08-17T20:13:10.941Z,59.63
2022-08-17T20:15:43.180Z,59.77
2022-08-17T20:18:19.226Z,59.90
2022-08-17T20:21:20.112Z,60.06
2022-08-17T20:23:57.233Z,60.05
2022-08-17T20:26:33.777Z,60.18
2022-08-17T20:29:40.415Z,60.38
2022-08-17T20:32:21.381Z,60.35
2022-08-17T20:35:05.782Z,60.43
2022-08-17T20:37:53.477Z,60.43
2022-08-17T20:40:34.636Z,60.50
2022-08-17T20:43:44.036Z,60.56
2022-08-17T20:46:18.204Z,60.64
2022-08-17T20:49:20.608Z,60.62
2022-08-17T20:52:07.142Z,60.77
2022-08-17T20:54:50.351Z,60.68
2022-08-17T20:57:47.268Z,60.84
2022-08-17T21:00:42.701Z,60.93
2022-08-17T21:03:51.934Z,61.04
2022-08-17T21:07:14.942Z,61.11
2022-08-17T21:09:44.553Z,61.23
2022-08-17T21:12:43.158Z,61.31
2022-08-17T21:15:29.728Z,61.27
2022-08-17T21:18:21.809Z,61.54
2022-08-17T21:21:19.810Z,61.67
2022-08-17T21:24:18.986Z,61.98
2022-08-17T21:27:04.787Z,62.12
2022-08-17T21:29:53.254Z,62.28
2022-08-17T21:32:34.681Z,62.32
2022-08-17T21:35:34.320Z,62.28
2022-08-17T21:38:14.248Z,61.96
2022-08-17T21:40:49.752Z,61.89
2022-08-17T21:43:26.313Z,61.93
2022-08-17T21:46:08.639Z,61.98
2022-08-17T21:48:44.490Z,61.85
2022-08-17T21:51:22.590Z,61.99
2022-08-17T21:53:53.761Z,62.07
2022-08-17T21:56:36.226Z,61.97
2022-08-17T21:59:08.603Z,62.16
2022-08-17T22:01:39.694Z,62.07
2022-08-17T22:04:25.006Z,62.12
2022-08-17T22:06:57.590Z,62.18
2022-08-17T22:09:31.601Z,62.25
2022-08-17T22:12:05.607Z,62.40
2022-08-17T22:14:52.090Z,62.49
2022-08-17T22:17:26.898Z,62.45
2022-08-17T22:19:58.962Z,62.56
2022-08-17T22:22:55.800Z,62.64
2022-08-17T22:25:26.900Z,62.69
2022-08-17T22:27:58.879Z,62.72
2022-08-17T22:30:36.334Z,62.80
2022-08-17T22:33:37.052Z,62.87
2022-08-17T22:36:25.032Z,62.88
2022-08-17T22:38:59.384Z,63.06
2022-08-17T22:41:40.692Z,63.20
2022-08-17T22:44:31.839Z,63.18
2022-08-17T22:47:06.143Z,63.23
2022-08-17T22:49:53.767Z,63.27
2022-08-17T22:52:55.625Z,63.40
2022-08-17T22:55:48.156Z,63.50
2022-08-17T22:58:38.225Z,63.45
2022-08-17T23:01:25.638Z,63.62
2022-08-17T23:03:55.581Z,63.59
2022-08-17T23:06:24.575Z,63.50
2022-08-17T23:08:57.463Z,63.43
2022-08-17T23:11:42.864Z,63.46
2022-08-17T23:14:20.632Z,63.63
2022-08-17T23:16:52.114Z,63.76
2022-08-17T23:19:22.088Z,63.69
2022-08-17T23:21:53.869Z,63.83
2022-08-17T23:24:27.564Z,63.84
2022-08-17T23:26:57.601Z,63.92
2022-08-17T23:29:29.036Z,63.85
2022-08-17T23:32:01.003Z,64.01
2022-08-17T23:34:29.917Z,63.94
2022-08-17T23:37:01.775Z,64.08
2022-08-17T23:39:31.195Z,64.20
2022-08-17T23:42:07.343Z,64.34
2022-08-17T23:44:37.135Z,64.43
2022-08-17T23:47:08.472Z,64.33
2022-08-17T23:49:41.145Z,64.49
2022-08-17T23:52:22.243Z,64.51
2022-08-17T23:54:51.234Z,64.41
2022-08-17T23:57:33.095Z,64.81
